createdAt,value
2024-03-23T00:01:45.545Z,6.51
2024-03-23T00:04:17.106Z,6.52
2024-03-23T00:06:48.254Z,6.50
2024-03-23T00:09:19.790Z,6.51
2024-03-23T00:11:53.412Z,6.53
2024-03-23T00:14:24.621Z,6.54
2024-03-23T00:16:55.741Z,6.52
2024-03-23T00:19:26.984Z,6.47
2024-03-23T00:21:58.274Z,6.41
2024-03-23T00:24:29.442Z,6.39
2024-03-23T00:27:00.613Z,6.39
2024-03-23T00:29:31.752Z,6.38
2024-03-23T00:32:03.049Z,6.34
2024-03-23T00:34:34.493Z,6.33
2024-03-23T00:37:05.698Z,6.34
2024-03-23T00:39:36.880Z,6.36
2024-03-23T00:42:07.987Z,6.37
2024-03-23T00:44:39.133Z,6.45
2024-03-23T00:47:10.335Z,6.44
2024-03-23T00:49:41.521Z,6.43
2024-03-23T00:52:12.622Z,6.40
2024-03-23T00:54:43.917Z,6.43
2024-03-23T00:57:15.242Z,6.47
2024-03-23T00:59:46.410Z,6.51
2024-03-23T01:02:17.560Z,6.54
2024-03-23T01:04:48.869Z,6.57
2024-03-23T01:07:20.019Z,6.60
2024-03-23T01:10:10.811Z,6.63
2024-03-23T01:12:42.219Z,6.66
2024-03-23T01:15:13.642Z,6.69
2024-03-23T01:17:44.762Z,6.72
2024-03-23T01:20:16.474Z,6.74
2024-03-23T01:22:49.637Z,6.75
2024-03-23T01:25:20.737Z,6.76
2024-03-23T01:27:56.482Z,6.81
2024-03-23T01:30:27.637Z,6.87
2024-03-23T01:32:58.874Z,6.92
2024-03-23T01:35:30.167Z,6.93
2024-03-23T01:38:01.584Z,6.98
2024-03-23T01:40:33.556Z,7.05
2024-03-23T01:43:09.783Z,7.07
2024-03-23T01:45:41.755Z,7.09
2024-03-23T01:48:13.524Z,7.09
2024-03-23T01:50:45.173Z,7.10
2024-03-23T01:53:18.447Z,7.10
2024-03-23T01:55:49.552Z,7.12
2024-03-23T01:58:20.716Z,7.14
2024-03-23T02:00:51.887Z,7.11
2024-03-23T02:03:28.640Z,7.13
2024-03-23T02:06:00.169Z,7.14
2024-03-23T02:08:32.729Z,7.18
2024-03-23T02:11:03.846Z,7.24
2024-03-23T02:13:35.102Z,7.28
2024-03-23T02:16:06.861Z,7.30
2024-03-23T02:18:38.806Z,7.26
2024-03-23T02:21:08.530Z,7.27
2024-03-23T02:23:39.602Z,7.27
2024-03-23T02:26:10.901Z,7.26
2024-03-23T02:28:42.291Z,7.21
2024-03-23T02:31:14.103Z,7.19
2024-03-23T02:33:46.608Z,7.32
2024-03-23T02:36:18.062Z,7.40
2024-03-23T02:38:49.467Z,7.46
2024-03-23T02:41:24.126Z,7.51
2024-03-23T02:43:55.482Z,7.54
2024-03-23T02:46:26.745Z,7.54
2024-03-23T02:48:58.363Z,7.52
2024-03-23T02:51:29.490Z,7.45
2024-03-23T02:54:00.696Z,7.42
2024-03-23T02:56:34.271Z,7.48
2024-03-23T02:59:05.604Z,7.52
2024-03-23T03:01:37.586Z,7.57
2024-03-23T03:04:09.293Z,7.62
2024-03-23T03:06:42.113Z,7.66
2024-03-23T03:09:14.492Z,7.68
2024-03-23T03:11:45.894Z,7.70
2024-03-23T03:14:17.155Z,7.70
2024-03-23T03:16:48.394Z,7.70
2024-03-23T03:19:19.646Z,7.63
2024-03-23T03:21:51.162Z,7.65
2024-03-23T03:24:22.715Z,7.68
2024-03-23T03:26:53.950Z,7.70
2024-03-23T03:29:25.569Z,7.67
2024-03-23T03:31:56.742Z,7.62
2024-03-23T03:34:27.868Z,7.56
2024-03-23T03:36:59.342Z,7.39
2024-03-23T03:39:34.312Z,7.36
2024-03-23T03:42:07.928Z,7.30
2024-03-23T03:44:40.745Z,7.19
2024-03-23T03:47:12.507Z,7.15
2024-03-23T03:49:45.659Z,7.07
2024-03-23T03:52:18.333Z,7.03
2024-03-23T03:54:50.467Z,7.02
2024-03-23T03:57:22.896Z,6.97
2024-03-23T03:59:54.546Z,6.90
2024-03-23T04:02:27.828Z,6.84
2024-03-23T04:05:02.599Z,6.71
2024-03-23T04:07:42.036Z,6.68
2024-03-23T04:10:23.829Z,6.63
2024-03-23T04:12:56.913Z,6.68
2024-03-23T04:15:30.806Z,6.64
2024-03-23T04:18:10.294Z,6.61
2024-03-23T04:20:43.292Z,6.64
2024-03-23T04:23:16.512Z,6.65
2024-03-23T04:25:48.764Z,6.61
2024-03-23T04:28:22.218Z,6.53
2024-03-23T04:30:54.977Z,6.56
2024-03-23T04:33:26.696Z,6.53
2024-03-23T04:35:57.224Z,6.45
2024-03-23T04:38:28.649Z,6.44
2024-03-23T04:41:03.190Z,6.40
2024-03-23T04:43:36.517Z,6.40
2024-03-23T04:46:12.496Z,6.34
2024-03-23T04:48:45.763Z,6.26
2024-03-23T04:51:25.129Z,6.18
2024-03-23T04:53:56.901Z,6.25
2024-03-23T04:56:28.836Z,6.27
2024-03-23T04:59:02.781Z,6.25
2024-03-23T05:01:34.512Z,6.20
2024-03-23T05:04:08.414Z,6.14
2024-03-23T05:06:40.890Z,6.08
2024-03-23T05:09:14.076Z,6.02
2024-03-23T05:11:45.739Z,6.03
2024-03-23T05:14:17.323Z,5.99
2024-03-23T05:16:48.580Z,5.97
2024-03-23T05:19:20.652Z,5.99
2024-03-23T05:21:50.636Z,5.97
2024-03-23T05:24:22.167Z,6.03
2024-03-23T05:26:53.462Z,5.99
2024-03-23T05:29:24.952Z,6.04
2024-03-23T05:31:58.013Z,6.11
2024-03-23T05:36:03.067Z,6.15
2024-03-23T05:38:34.355Z,6.17
2024-03-23T05:41:06.490Z,6.19
2024-03-23T05:43:38.040Z,6.23
2024-03-23T05:46:09.902Z,6.27
2024-03-23T05:48:41.245Z,6.30
2024-03-23T05:51:14.183Z,6.29
2024-03-23T05:53:45.315Z,6.24
2024-03-23T05:56:16.508Z,6.22
2024-03-23T05:58:47.792Z,6.10
2024-03-23T06:01:18.942Z,6.03
2024-03-23T06:03:50.028Z,5.99
2024-03-23T06:06:21.482Z,5.94
2024-03-23T06:08:53.851Z,5.95
2024-03-23T06:11:27.670Z,5.99
2024-03-23T06:13:58.838Z,6.01
2024-03-23T06:16:32.325Z,5.97
2024-03-23T06:19:05.686Z,5.96
2024-03-23T06:21:36.909Z,5.95
2024-03-23T06:24:08.738Z,6.00
2024-03-23T06:26:39.859Z,6.04
2024-03-23T06:29:11.184Z,5.98
2024-03-23T06:31:42.480Z,5.88
2024-03-23T06:34:14.012Z,5.83
2024-03-23T06:36:48.831Z,5.78
2024-03-23T06:39:20.012Z,5.88
2024-03-23T06:41:58.025Z,5.96
2024-03-23T06:44:29.134Z,6.02
2024-03-23T06:47:00.392Z,6.01
2024-03-23T06:49:31.503Z,5.98
2024-03-23T06:52:02.512Z,6.03
2024-03-23T06:54:33.644Z,6.10
2024-03-23T06:57:04.893Z,6.14
2024-03-23T06:59:35.991Z,6.18
2024-03-23T07:02:09.422Z,6.21
2024-03-23T07:04:41.148Z,6.24
2024-03-23T07:07:12.673Z,6.31
2024-03-23T07:09:44.283Z,6.38
2024-03-23T07:12:15.365Z,6.40
2024-03-23T07:14:46.757Z,6.39
2024-03-23T07:17:19.601Z,6.41
2024-03-23T07:19:50.749Z,6.43
2024-03-23T07:22:21.800Z,6.40
2024-03-23T07:24:53.368Z,6.44
2024-03-23T07:27:25.243Z,6.49
2024-03-23T07:29:56.447Z,6.50
2024-03-23T07:32:27.752Z,6.51
2024-03-23T07:34:58.846Z,6.54
2024-03-23T07:37:30.841Z,6.54
2024-03-23T07:40:01.937Z,6.49
2024-03-23T07:42:33.156Z,6.42
2024-03-23T07:45:07.955Z,6.34
2024-03-23T07:47:39.501Z,6.30
2024-03-23T07:50:11.954Z,6.30
2024-03-23T07:52:43.119Z,6.27
2024-03-23T07:55:14.304Z,6.28
2024-03-23T07:57:45.456Z,6.28
2024-03-23T08:00:17.629Z,6.28
2024-03-23T08:02:49.236Z,6.30
2024-03-23T08:05:20.857Z,6.33
2024-03-23T08:07:55.186Z,6.35
2024-03-23T08:10:26.287Z,6.29
2024-03-23T08:12:57.416Z,6.28
2024-03-23T08:15:28.567Z,6.29
2024-03-23T08:18:01.831Z,6.31
2024-03-23T08:20:34.936Z,6.34
2024-03-23T08:23:06.863Z,6.38
2024-03-23T08:25:38.196Z,6.36
2024-03-23T08:28:09.653Z,6.30
2024-03-23T08:30:40.894Z,6.27
2024-03-23T08:33:12.004Z,6.24
2024-03-23T08:35:43.307Z,6.27
2024-03-23T08:38:14.315Z,6.29
2024-03-23T08:40:45.635Z,6.30
2024-03-23T08:43:16.749Z,6.29
2024-03-23T08:45:47.865Z,6.28
2024-03-23T08:48:20.508Z,6.26
2024-03-23T08:51:02.696Z,6.28
2024-03-23T08:53:34.843Z,6.27
2024-03-23T08:56:08.020Z,6.24
2024-03-23T08:58:40.533Z,6.20
2024-03-23T09:01:12.772Z,6.26
2024-03-23T09:03:43.862Z,6.41
2024-03-23T09:06:16.794Z,6.51
2024-03-23T09:08:47.975Z,6.44
2024-03-23T09:11:19.094Z,6.57
2024-03-23T09:13:50.653Z,6.68
2024-03-23T09:16:21.744Z,6.76
2024-03-23T09:18:53.875Z,7.06
2024-03-23T09:21:23.502Z,7.29
2024-03-23T09:23:54.660Z,7.48
2024-03-23T09:26:25.718Z,7.66
2024-03-23T09:28:56.792Z,7.87
2024-03-23T09:31:28.147Z,8.06
2024-03-23T09:33:59.935Z,8.32
2024-03-23T09:36:31.033Z,8.61
2024-03-23T09:39:02.173Z,8.81
2024-03-23T09:41:34.400Z,8.93
2024-03-23T09:44:06.904Z,9.09
2024-03-23T09:46:40.255Z,9.16
2024-03-23T09:49:12.263Z,9.20
2024-03-23T09:51:42.334Z,9.17
2024-03-23T09:54:13.538Z,9.23
2024-03-23T09:56:46.548Z,9.30
2024-03-23T09:59:18.594Z,9.34
2024-03-23T10:01:51.109Z,9.65
2024-03-23T10:04:42.896Z,9.86
2024-03-23T10:07:16.307Z,9.99
2024-03-23T10:09:52.035Z,10.02
2024-03-23T10:12:25.790Z,9.94
2024-03-23T10:14:56.891Z,9.78
2024-03-23T10:17:28.222Z,9.62
2024-03-23T10:19:59.703Z,9.70
2024-03-23T10:22:30.862Z,10.11
2024-03-23T10:25:11.452Z,10.55
2024-03-23T10:27:44.534Z,10.84
2024-03-23T10:30:18.272Z,10.98
2024-03-23T10:32:51.625Z,11.08
2024-03-23T10:35:24.101Z,10.97
2024-03-23T10:37:58.107Z,10.64
2024-03-23T10:40:31.724Z,10.42
2024-03-23T10:43:04.941Z,10.31
2024-03-23T10:45:36.215Z,10.18
2024-03-23T10:48:08.656Z,10.11
2024-03-23T10:50:39.956Z,10.02
2024-03-23T10:53:13.062Z,10.08
2024-03-23T10:55:46.821Z,10.26
2024-03-23T10:58:29.587Z,10.22
2024-03-23T11:01:00.906Z,9.98
2024-03-23T11:03:37.827Z,9.76
2024-03-23T11:06:10.222Z,9.86
2024-03-23T11:08:43.627Z,9.97
2024-03-23T11:11:20.662Z,10.01
2024-03-23T11:13:53.425Z,10.17
2024-03-23T11:16:30.805Z,10.30
2024-03-23T11:19:35.154Z,10.35
2024-03-23T11:22:07.246Z,10.43
2024-03-23T11:24:39.412Z,10.63
2024-03-23T11:27:21.343Z,10.70
2024-03-23T11:29:52.696Z,10.64
2024-03-23T11:32:24.473Z,10.48
2024-03-23T11:34:57.403Z,10.20
2024-03-23T11:37:31.007Z,9.54
2024-03-23T11:40:03.232Z,8.99
2024-03-23T11:42:34.391Z,8.71
2024-03-23T11:45:13.341Z,8.47
2024-03-23T11:47:44.590Z,8.30
2024-03-23T11:50:22.944Z,8.33
2024-03-23T11:52:54.155Z,8.66
2024-03-23T11:55:25.603Z,9.01
2024-03-23T11:57:58.192Z,9.16
2024-03-23T12:00:30.766Z,9.24
2024-03-23T12:03:05.471Z,9.15
2024-03-23T12:05:37.651Z,9.14
2024-03-23T12:08:22.715Z,9.07
2024-03-23T12:11:07.061Z,8.88
2024-03-23T12:13:42.910Z,8.68
2024-03-23T12:16:16.372Z,8.52
2024-03-23T12:19:13.254Z,8.64
2024-03-23T12:21:59.087Z,8.79
2024-03-23T12:24:31.672Z,8.92
2024-03-23T12:27:08.721Z,9.27
2024-03-23T12:29:50.525Z,9.52
2024-03-23T12:32:24.458Z,9.81
2024-03-23T12:34:55.802Z,9.72
2024-03-23T12:37:27.090Z,9.50
2024-03-23T12:40:00.385Z,9.25
2024-03-23T12:42:35.129Z,9.05
2024-03-23T12:45:07.435Z,9.22
2024-03-23T12:47:38.625Z,9.44
2024-03-23T12:50:13.835Z,9.53
2024-03-23T12:52:46.558Z,9.58
2024-03-23T12:55:21.865Z,9.50
2024-03-23T12:57:53.499Z,9.50
2024-03-23T13:00:26.327Z,9.55
2024-03-23T13:03:01.320Z,9.56
2024-03-23T13:05:32.630Z,9.60
2024-03-23T13:08:04.308Z,9.58
2024-03-23T13:10:35.629Z,9.57
2024-03-23T13:13:08.858Z,9.45
2024-03-23T13:15:40.185Z,9.35
2024-03-23T13:18:11.446Z,9.32
2024-03-23T13:20:43.343Z,9.44
2024-03-23T13:23:16.138Z,9.52
2024-03-23T13:25:54.880Z,9.52
2024-03-23T13:28:26.462Z,9.49
2024-03-23T13:30:59.146Z,9.45
2024-03-23T13:33:30.397Z,9.50
2024-03-23T13:36:03.059Z,9.48
2024-03-23T13:38:34.987Z,9.33
2024-03-23T13:41:08.081Z,9.09
2024-03-23T13:43:41.624Z,8.89
2024-03-23T13:46:13.263Z,8.93
2024-03-23T13:48:44.522Z,8.81
2024-03-23T13:51:15.916Z,8.71
2024-03-23T13:53:47.136Z,8.44
2024-03-23T13:56:18.611Z,8.31
2024-03-23T13:58:50.867Z,8.25
2024-03-23T14:01:22.223Z,8.30
2024-03-23T14:03:53.482Z,8.38
2024-03-23T14:06:24.859Z,8.56
2024-03-23T14:08:55.944Z,8.88
2024-03-23T14:11:29.799Z,9.00
2024-03-23T14:14:01.060Z,8.86
2024-03-23T14:16:32.349Z,8.71
2024-03-23T14:19:06.451Z,8.67
2024-03-23T14:21:37.617Z,8.61
2024-03-23T14:24:10.384Z,8.53
2024-03-23T14:26:42.680Z,8.49
2024-03-23T14:29:14.314Z,8.43
2024-03-23T14:31:48.590Z,8.56
2024-03-23T14:34:19.826Z,8.70
2024-03-23T14:36:51.260Z,8.71
2024-03-23T14:39:25.952Z,8.74
2024-03-23T14:41:57.720Z,8.83
2024-03-23T14:44:28.950Z,8.88
2024-03-23T14:47:00.846Z,8.85
2024-03-23T14:49:32.074Z,8.81
2024-03-23T14:52:03.841Z,8.73
2024-03-23T14:54:36.313Z,8.75
2024-03-23T14:57:08.531Z,8.82
2024-03-23T14:59:42.900Z,8.78
2024-03-23T15:02:15.983Z,8.65
2024-03-23T15:04:47.160Z,8.43
2024-03-23T15:07:18.789Z,8.24
2024-03-23T15:09:50.084Z,8.07
2024-03-23T15:12:22.176Z,7.97
2024-03-23T15:14:53.582Z,7.87
2024-03-23T15:17:24.685Z,7.77
2024-03-23T15:19:55.923Z,7.69
2024-03-23T15:22:27.447Z,7.64
2024-03-23T15:24:58.656Z,7.60
2024-03-23T15:27:29.982Z,7.62
2024-03-23T15:30:01.856Z,7.62
2024-03-23T15:32:33.143Z,7.63
2024-03-23T15:35:08.259Z,7.65
2024-03-23T15:37:40.200Z,7.64
2024-03-23T15:40:14.506Z,7.65
2024-03-23T15:42:45.812Z,7.66
2024-03-23T15:45:17.088Z,7.62
2024-03-23T15:47:48.332Z,7.62
2024-03-23T15:50:19.595Z,7.66
2024-03-23T15:52:51.653Z,7.75
2024-03-23T15:55:22.835Z,7.85
2024-03-23T15:57:53.878Z,7.96
2024-03-23T16:00:25.077Z,8.01
2024-03-23T16:02:56.867Z,7.99
2024-03-23T16:05:29.116Z,7.91
2024-03-23T16:08:00.320Z,7.82
2024-03-23T16:10:31.438Z,7.70
2024-03-23T16:13:02.582Z,7.61
2024-03-23T16:15:33.901Z,7.54
2024-03-23T16:18:05.411Z,7.56
2024-03-23T16:20:37.725Z,7.52
2024-03-23T16:23:08.993Z,7.47
2024-03-23T16:25:51.075Z,7.46
2024-03-23T16:28:22.250Z,7.41
2024-03-23T16:30:58.891Z,7.16
2024-03-23T16:33:32.046Z,6.86
2024-03-23T16:36:05.887Z,6.65
2024-03-23T16:38:38.762Z,6.52
2024-03-23T16:41:14.295Z,6.40
2024-03-23T16:43:46.305Z,6.26
2024-03-23T16:46:18.402Z,6.16
2024-03-23T16:48:48.170Z,5.98
2024-03-23T16:51:19.357Z,5.85
2024-03-23T16:53:50.640Z,5.61
2024-03-23T16:56:22.037Z,5.49
2024-03-23T16:58:53.409Z,5.44
2024-03-23T17:01:25.461Z,5.44
2024-03-23T17:03:55.229Z,5.42
2024-03-23T17:06:27.119Z,5.37
2024-03-23T17:09:00.093Z,5.32
2024-03-23T17:11:31.353Z,5.26
2024-03-23T17:14:03.215Z,5.23
2024-03-23T17:16:34.350Z,5.20
2024-03-23T17:19:05.665Z,5.11
2024-03-23T17:21:41.205Z,4.99
2024-03-23T17:24:12.680Z,4.89
2024-03-23T17:26:43.874Z,4.84
2024-03-23T17:29:15.988Z,4.77
2024-03-23T17:31:45.779Z,4.66
2024-03-23T17:34:16.990Z,4.58
2024-03-23T17:36:48.908Z,4.49
2024-03-23T17:39:20.099Z,4.43
2024-03-23T17:41:51.246Z,4.39
2024-03-23T17:44:22.552Z,4.35
2024-03-23T17:46:53.703Z,4.32
2024-03-23T17:49:36.567Z,4.28
2024-03-23T18:01:26.568Z,4.15
2024-03-23T18:04:28.353Z,4.02
2024-03-23T18:11:56.827Z,3.76
2024-03-23T18:16:00.089Z,3.69
2024-03-23T18:23:06.451Z,3.45
2024-03-23T18:26:20.700Z,3.36
2024-03-23T18:48:45.501Z,2.89
2024-03-23T18:59:24.531Z,2.64
2024-03-23T19:01:58.941Z,2.64
2024-03-23T19:04:30.040Z,2.59
2024-03-23T19:07:01.342Z,2.59
2024-03-23T19:09:35.095Z,2.57
2024-03-23T19:12:09.934Z,2.55
2024-03-23T19:14:41.439Z,2.56
2024-03-23T19:17:12.513Z,2.58
2024-03-23T19:19:43.670Z,2.59
2024-03-23T19:22:14.742Z,2.60
2024-03-23T19:24:46.191Z,2.59
2024-03-23T19:27:19.721Z,2.56
2024-03-23T19:29:51.851Z,2.53
2024-03-23T19:32:23.019Z,2.51
2024-03-23T19:34:54.170Z,2.46
2024-03-23T19:37:25.299Z,2.40
2024-03-23T19:39:57.621Z,2.33
2024-03-23T19:42:30.569Z,2.27
2024-03-23T19:45:01.679Z,2.21
2024-03-23T19:47:32.812Z,2.18
2024-03-23T19:50:04.227Z,2.14
2024-03-23T19:52:35.445Z,2.11
2024-03-23T19:55:08.006Z,2.05
2024-03-23T19:57:39.153Z,1.99
2024-03-23T20:00:12.013Z,1.95
2024-03-23T20:02:49.854Z,1.92
2024-03-23T20:05:21.180Z,1.90
2024-03-23T20:07:52.245Z,1.90
2024-03-23T20:10:23.414Z,1.89
2024-03-23T20:12:54.493Z,1.87
2024-03-23T20:15:26.088Z,1.85
2024-03-23T20:17:57.167Z,1.86
2024-03-23T20:20:28.612Z,1.86
2024-03-23T20:22:59.825Z,1.87
2024-03-23T20:25:30.920Z,1.82
2024-03-23T20:28:02.084Z,1.77
2024-03-23T20:30:33.226Z,1.73
2024-03-23T20:33:05.275Z,1.71
2024-03-23T20:35:36.313Z,1.69
2024-03-23T20:38:08.111Z,1.66
2024-03-23T20:40:39.203Z,1.64
2024-03-23T20:43:12.191Z,1.61
2024-03-23T20:45:43.938Z,1.60
2024-03-23T20:48:15.191Z,1.66
2024-03-23T20:50:46.402Z,1.70
2024-03-23T20:53:17.551Z,1.78
2024-03-23T20:55:55.851Z,1.85
2024-03-23T20:58:28.535Z,1.89
2024-03-23T21:01:01.732Z,1.96
2024-03-23T21:03:35.877Z,2.07
2024-03-23T21:06:09.135Z,2.17
2024-03-23T21:08:40.869Z,2.25
2024-03-23T21:11:12.242Z,2.36
2024-03-23T21:13:43.520Z,2.45
2024-03-23T21:16:14.756Z,2.53
2024-03-23T21:18:46.279Z,2.60
2024-03-23T21:21:20.125Z,2.63
2024-03-23T21:23:54.492Z,2.63
2024-03-23T21:26:25.875Z,2.64
2024-03-23T21:28:57.178Z,2.63
2024-03-23T21:31:28.454Z,2.58
2024-03-23T21:34:00.026Z,2.55
2024-03-23T21:36:33.352Z,2.51
2024-03-23T21:39:08.023Z,2.45
2024-03-23T21:41:39.278Z,2.36
2024-03-23T21:44:10.747Z,2.32
2024-03-23T21:46:42.045Z,2.27
2024-03-23T21:49:13.328Z,2.22
2024-03-23T21:51:44.477Z,2.21
2024-03-23T21:54:15.711Z,2.20
2024-03-23T21:56:47.101Z,2.18
2024-03-23T21:59:22.449Z,2.22
2024-03-23T22:01:56.273Z,2.21
2024-03-23T22:04:30.357Z,2.27
2024-03-23T22:07:04.999Z,2.32
2024-03-23T22:09:36.327Z,2.33
2024-03-23T22:12:09.423Z,2.34
2024-03-23T22:14:40.524Z,2.36
2024-03-23T22:17:11.628Z,2.35
2024-03-23T22:19:42.821Z,2.32
2024-03-23T22:22:13.909Z,2.26
2024-03-23T22:24:45.020Z,2.21
2024-03-23T22:27:16.241Z,2.24
2024-03-23T22:29:49.097Z,2.25
2024-03-23T22:32:20.183Z,2.23
2024-03-23T22:34:51.350Z,2.24
2024-03-23T22:37:22.561Z,2.21
2024-03-23T22:39:53.922Z,2.15
2024-03-23T22:42:25.189Z,2.13
2024-03-23T22:44:56.430Z,2.13
2024-03-23T22:47:27.605Z,2.13
2024-03-23T22:49:58.791Z,2.12
2024-03-23T22:52:29.960Z,2.13
2024-03-23T22:55:01.111Z,2.17
2024-03-23T22:57:32.349Z,2.20
2024-03-23T23:00:09.192Z,2.25
2024-03-23T23:02:40.465Z,2.31
2024-03-23T23:05:11.807Z,2.36
2024-03-23T23:07:42.969Z,2.43
2024-03-23T23:10:14.296Z,2.50
2024-03-23T23:12:45.454Z,2.56
2024-03-23T23:15:16.682Z,2.62
2024-03-23T23:17:48.303Z,2.65
2024-03-23T23:20:19.775Z,2.72
2024-03-23T23:22:50.912Z,2.80
2024-03-23T23:25:22.308Z,2.87
2024-03-23T23:27:53.533Z,2.90
2024-03-23T23:30:25.882Z,2.95
2024-03-23T23:32:58.502Z,2.99
2024-03-23T23:35:29.684Z,2.95
2024-03-23T23:38:00.862Z,2.94
2024-03-23T23:40:34.142Z,2.95
2024-03-23T23:43:05.367Z,2.94
2024-03-23T23:45:36.558Z,2.91
2024-03-23T23:48:08.864Z,2.92
2024-03-23T23:50:41.447Z,2.92
2024-03-23T23:53:12.579Z,2.90
2024-03-23T23:55:44.147Z,2.87
2024-03-23T23:58:15.534Z,2.88
